Time;durP1;ratioP1;P1;durP2;ratioP2;P2;SDS_P1;SDS_P2;PMS_P1;PMS_P2;Temp;Humidity;BMP_temperature;BMP_pressure;BME280_temperature;BME280_humidity;BME280_pressure;Samples;Min_cycle;Max_cycle;Signal;HPM_P1;HPM_P2
2024/01/31 00:00:49;;;;;;;0.50;0.50;;;;;;;;;;5100545;27;20074;-83
2024/01/31 00:03:15;;;;;;;0.40;0.40;;;;;;;;;;5120070;27;20070;-83
2024/01/31 00:05:41;;;;;;;0.40;0.40;;;;;;;;;;5103431;27;20128;-83
2024/01/31 00:08:07;;;;;;;0.50;0.50;;;;;;;;;;5117694;27;20063;-83
2024/01/31 00:10:33;;;;;;;0.45;0.45;;;;;;;;;;5104623;27;20038;-83
2024/01/31 00:12:59;;;;;;;0.40;0.40;;;;;;;;;;5127465;27;20041;-83
2024/01/31 00:15:25;;;;;;;0.40;0.40;;;;;;;;;;5120516;27;20092;-83
2024/01/31 00:17:51;;;;;;;0.45;0.45;;;;;;;;;;5128010;27;20035;-83
2024/01/31 00:20:17;;;;;;;0.50;0.50;;;;;;;;;;5112982;27;20042;-83
2024/01/31 00:22:43;;;;;;;0.40;0.40;;;;;;;;;;5135318;27;20047;-83
2024/01/31 00:25:09;;;;;;;0.50;0.50;;;;;;;;;;5107672;27;20035;-83
2024/01/31 00:27:35;;;;;;;0.47;0.47;;;;;;;;;;5104264;27;20047;-83
2024/01/31 00:30:01;;;;;;;0.50;0.50;;;;;;;;;;5135648;27;20046;-83
2024/01/31 00:32:27;;;;;;;0.50;0.50;;;;;;;;;;5099589;27;20056;-83
2024/01/31 00:34:53;;;;;;;0.40;0.40;;;;;;;;;;5100232;27;20042;-83
2024/01/31 00:37:19;;;;;;;0.50;0.50;;;;;;;;;;5099919;27;20046;-82
2024/01/31 00:39:55;;;;;;;0.50;0.50;;;;;;;;;;5117186;27;20119;-83
2024/01/31 00:42:21;;;;;;;0.50;0.50;;;;;;;;;;5117139;27;20043;-83
2024/01/31 00:44:47;;;;;;;0.40;0.40;;;;;;;;;;5117087;27;20046;-83
2024/01/31 00:47:13;;;;;;;0.50;0.50;;;;;;;;;;5099701;27;20126;-83
2024/01/31 00:49:39;;;;;;;0.43;0.43;;;;;;;;;;5116944;27;20484;-83
2024/01/31 00:52:06;;;;;;;0.50;0.50;;;;;;;;;;5099189;27;20510;-83
2024/01/31 00:54:32;;;;;;;0.50;0.50;;;;;;;;;;5116883;27;20035;-83
2024/01/31 00:56:58;;;;;;;0.40;0.40;;;;;;;;;;5116551;27;20035;-83
2024/01/31 00:59:24;;;;;;;0.50;0.50;;;;;;;;;;5099845;27;20095;-83
2024/01/31 01:01:50;;;;;;;0.50;0.50;;;;;;;;;;5099379;27;20062;-83
2024/01/31 01:04:16;;;;;;;0.40;0.40;;;;;;;;;;5116682;27;20480;-83
2024/01/31 01:06:42;;;;;;;0.50;0.50;;;;;;;;;;5099588;27;20092;-83
2024/01/31 01:09:08;;;;;;;0.43;0.43;;;;;;;;;;5099337;27;20038;-83
2024/01/31 01:11:34;;;;;;;0.47;0.47;;;;;;;;;;5116492;27;20498;-84
2024/01/31 01:14:00;;;;;;;0.38;0.38;;;;;;;;;;5134552;27;20046;-83
2024/01/31 01:16:26;;;;;;;0.40;0.40;;;;;;;;;;5099278;27;20035;-83
2024/01/31 01:18:52;;;;;;;0.50;0.50;;;;;;;;;;5116546;27;20045;-83
2024/01/31 01:21:18;;;;;;;0.50;0.50;;;;;;;;;;5116401;27;20045;-83
2024/01/31 01:23:44;;;;;;;0.50;0.50;;;;;;;;;;5116100;27;20127;-83
2024/01/31 01:26:10;;;;;;;0.50;0.50;;;;;;;;;;5099115;27;20050;-83
2024/01/31 01:28:38;;;;;;;0.50;0.50;;;;;;;;;;5099075;27;20089;-83
2024/01/31 01:31:04;;;;;;;0.40;0.40;;;;;;;;;;5116336;27;20039;-83
2024/01/31 01:33:30;;;;;;;0.43;0.43;;;;;;;;;;5098876;27;20038;-83
2024/01/31 01:35:56;;;;;;;0.40;0.40;;;;;;;;;;5099202;27;20488;-83
2024/01/31 01:38:22;;;;;;;0.50;0.50;;;;;;;;;;5099218;27;20046;-83
2024/01/31 01:40:48;;;;;;;0.45;0.45;;;;;;;;;;5115673;28;20041;-83
2024/01/31 01:43:16;;;;;;;0.50;0.50;;;;;;;;;;5098742;27;20049;-84
2024/01/31 01:45:41;;;;;;;0.40;0.40;;;;;;;;;;5098749;27;20042;-83
2024/01/31 01:48:08;;;;;;;0.50;0.50;;;;;;;;;;5098684;27;20039;-83
2024/01/31 01:50:34;;;;;;;0.43;0.43;;;;;;;;;;5098967;27;20483;-83
2024/01/31 01:53:00;;;;;;;0.40;0.40;;;;;;;;;;5098591;27;20035;-83
2024/01/31 01:55:26;;;;;;;0.45;0.45;;;;;;;;;;5098880;27;20050;-83
2024/01/31 01:57:52;;;;;;;0.40;0.40;;;;;;;;;;5098748;27;20070;-83
2024/01/31 02:00:18;;;;;;;0.40;0.40;;;;;;;;;;5115802;27;20074;-83
2024/01/31 02:02:45;;;;;;;0.40;0.40;;;;;;;;;;5098499;27;20062;-83
2024/01/31 02:05:10;;;;;;;0.40;0.40;;;;;;;;;;5097713;28;20171;-83
2024/01/31 02:07:36;;;;;;;0.43;0.43;;;;;;;;;;5115692;28;20122;-83
2024/01/31 02:10:03;;;;;;;0.43;0.43;;;;;;;;;;5098549;28;20035;-83
2024/01/31 02:12:29;;;;;;;0.47;0.47;;;;;;;;;;5098637;28;20035;-83
2024/01/31 02:14:57;;;;;;;0.40;0.40;;;;;;;;;;5115694;27;20092;-83
2024/01/31 02:17:23;;;;;;;0.50;0.50;;;;;;;;;;5098353;28;20399;-83
2024/01/31 02:19:49;;;;;;;0.40;0.40;;;;;;;;;;5098369;28;20042;-83
2024/01/31 02:22:18;;;;;;;0.40;0.40;;;;;;;;;;5098192;28;20488;-83
2024/01/31 02:24:44;;;;;;;0.40;0.40;;;;;;;;;;5115280;28;20039;-83
2024/01/31 02:27:10;;;;;;;0.50;0.50;;;;;;;;;;5098236;28;20035;-84
2024/01/31 02:29:39;;;;;;;0.40;0.40;;;;;;;;;;5098408;28;20069;-83
2024/01/31 02:32:06;;;;;;;0.40;0.40;;;;;;;;;;5098277;28;20484;-83
2024/01/31 02:34:32;;;;;;;0.40;0.40;;;;;;;;;;5115564;28;20539;-83
2024/01/31 02:36:58;;;;;;;0.43;0.43;;;;;;;;;;5098136;28;20047;-83
2024/01/31 02:39:24;;;;;;;0.47;0.47;;;;;;;;;;5098081;28;20039;-83
2024/01/31 02:41:52;;;;;;;0.40;0.40;;;;;;;;;;5098099;28;20444;-83
2024/01/31 02:44:18;;;;;;;0.50;0.50;;;;;;;;;;5098173;28;20039;-83
2024/01/31 02:46:44;;;;;;;0.40;0.40;;;;;;;;;;5098074;28;20088;-83
2024/01/31 02:49:10;;;;;;;0.30;0.30;;;;;;;;;;5133740;28;20471;-83
2024/01/31 02:51:36;;;;;;;0.40;0.40;;;;;;;;;;5098289;28;20035;-83
2024/01/31 02:54:02;;;;;;;0.45;0.45;;;;;;;;;;5114906;28;20035;-83
2024/01/31 02:56:28;;;;;;;0.40;0.40;;;;;;;;;;5115301;28;20071;-83
2024/01/31 02:58:54;;;;;;;0.50;0.50;;;;;;;;;;5115322;28;20077;-83
2024/01/31 03:01:20;;;;;;;0.40;0.40;;;;;;;;;;5098067;28;20503;-83
2024/01/31 03:03:46;;;;;;;0.40;0.40;;;;;;;;;;5097857;28;20526;-83
2024/01/31 03:06:12;;;;;;;0.30;0.30;;;;;;;;;;5115238;28;20441;-83
2024/01/31 03:08:38;;;;;;;0.40;0.40;;;;;;;;;;5114845;28;20050;-83
2024/01/31 03:11:04;;;;;;;0.50;0.50;;;;;;;;;;5133509;28;20045;-83
2024/01/31 03:13:45;;;;;;;0.40;0.40;;;;;;;;;;5115069;28;20484;-83
2024/01/31 03:16:10;;;;;;;0.40;0.40;;;;;;;;;;5100053;27;20126;-83
2024/01/31 03:18:36;;;;;;;0.40;0.40;;;;;;;;;;5118889;27;20131;-83
2024/01/31 03:21:02;;;;;;;0.32;0.32;;;;;;;;;;5118517;27;20035;-83
2024/01/31 03:23:28;;;;;;;0.40;0.40;;;;;;;;;;5136786;27;20572;-83
2024/01/31 03:25:54;;;;;;;0.32;0.32;;;;;;;;;;5101482;27;20043;-83
2024/01/31 03:28:20;;;;;;;0.50;0.50;;;;;;;;;;5136817;27;20039;-83
2024/01/31 03:30:46;;;;;;;0.50;0.50;;;;;;;;;;5118504;27;20420;-83
2024/01/31 03:33:12;;;;;;;0.43;0.43;;;;;;;;;;5101230;27;20039;-83
2024/01/31 03:35:38;;;;;;;0.40;0.40;;;;;;;;;;5101198;27;20061;-83
2024/01/31 03:38:04;;;;;;;0.40;0.40;;;;;;;;;;5118003;27;20116;-83
2024/01/31 03:40:30;;;;;;;0.35;0.35;;;;;;;;;;5101181;27;20392;-84
2024/01/31 03:42:56;;;;;;;0.40;0.40;;;;;;;;;;5118198;27;20043;-83
2024/01/31 03:45:22;;;;;;;0.40;0.40;;;;;;;;;;5118416;27;20042;-83
2024/01/31 03:47:48;;;;;;;0.40;0.40;;;;;;;;;;5100917;27;20632;-83
2024/01/31 03:50:14;;;;;;;0.40;0.40;;;;;;;;;;5100932;27;20418;-83
2024/01/31 03:52:40;;;;;;;0.40;0.40;;;;;;;;;;5100971;27;20072;-83
2024/01/31 03:55:06;;;;;;;0.40;0.40;;;;;;;;;;5100783;27;20104;-83
2024/01/31 03:57:32;;;;;;;0.40;0.40;;;;;;;;;;5100701;27;20077;-83
2024/01/31 04:00:04;;;;;;;0.50;0.50;;;;;;;;;;5117707;27;20419;-83
2024/01/31 04:02:30;;;;;;;0.40;0.40;;;;;;;;;;5100949;27;20039;-83
2024/01/31 04:04:58;;;;;;;0.50;0.50;;;;;;;;;;5100522;27;20046;-83
2024/01/31 04:07:24;;;;;;;0.50;0.50;;;;;;;;;;5100502;27;20050;-83
2024/01/31 04:09:50;;;;;;;0.40;0.40;;;;;;;;;;5100823;27;20092;-83
2024/01/31 04:12:16;;;;;;;0.50;0.50;;;;;;;;;;5100294;27;20043;-83
2024/01/31 04:14:42;;;;;;;0.40;0.40;;;;;;;;;;5100433;27;20049;-83
2024/01/31 04:17:08;;;;;;;0.50;0.50;;;;;;;;;;5100457;27;20441;-83
2024/01/31 04:19:34;;;;;;;0.40;0.40;;;;;;;;;;5117328;27;20058;-83
2024/01/31 04:22:00;;;;;;;0.40;0.40;;;;;;;;;;5117061;27;20035;-84
2024/01/31 04:24:26;;;;;;;0.50;0.50;;;;;;;;;;5117260;27;20043;-83
2024/01/31 04:26:51;;;;;;;0.40;0.40;;;;;;;;;;5099274;28;20057;-83
2024/01/31 04:29:17;;;;;;;0.40;0.40;;;;;;;;;;5100131;27;20488;-83
2024/01/31 04:31:43;;;;;;;0.40;0.40;;;;;;;;;;5100363;27;20516;-83
2024/01/31 04:34:09;;;;;;;0.40;0.40;;;;;;;;;;5117231;27;20043;-83
2024/01/31 04:36:42;;;;;;;0.43;0.43;;;;;;;;;;5099948;27;20039;-83
2024/01/31 04:39:08;;;;;;;0.30;0.30;;;;;;;;;;5100388;27;20047;-83
2024/01/31 04:41:33;;;;;;;0.40;0.40;;;;;;;;;;5100221;27;20043;-83
2024/01/31 04:43:59;;;;;;;0.50;0.50;;;;;;;;;;5117038;27;20156;-83
2024/01/31 04:46:25;;;;;;;0.40;0.40;;;;;;;;;;5099834;27;20039;-83
2024/01/31 04:48:51;;;;;;;0.40;0.40;;;;;;;;;;5099776;27;20043;-83
2024/01/31 04:51:17;;;;;;;0.40;0.40;;;;;;;;;;5135343;27;20035;-83
2024/01/31 04:53:43;;;;;;;0.40;0.40;;;;;;;;;;5099421;27;20408;-83
2024/01/31 04:56:09;;;;;;;0.50;0.50;;;;;;;;;;5099754;27;20052;-83
2024/01/31 04:58:36;;;;;;;0.40;0.40;;;;;;;;;;5099677;27;20043;-83
2024/01/31 05:01:03;;;;;;;0.30;0.30;;;;;;;;;;5116745;27;20047;-83
2024/01/31 05:03:29;;;;;;;0.40;0.40;;;;;;;;;;5116504;27;20047;-83
2024/01/31 05:05:55;;;;;;;0.50;0.50;;;;;;;;;;5099687;27;20053;-83
2024/01/31 05:08:21;;;;;;;0.50;0.50;;;;;;;;;;5099277;27;20035;-83
2024/01/31 05:10:47;;;;;;;0.40;0.40;;;;;;;;;;5116261;27;20031;-83
2024/01/31 05:13:13;;;;;;;0.40;0.40;;;;;;;;;;5116222;27;20064;-83
2024/01/31 05:15:40;;;;;;;0.43;0.43;;;;;;;;;;5116434;27;20031;-83
2024/01/31 05:18:06;;;;;;;0.40;0.40;;;;;;;;;;5099393;27;20513;-83
2024/01/31 05:20:32;;;;;;;0.50;0.50;;;;;;;;;;5099269;27;20039;-83
2024/01/31 05:22:57;;;;;;;0.47;0.47;;;;;;;;;;5098842;27;20042;-83
2024/01/31 05:25:23;;;;;;;0.47;0.47;;;;;;;;;;5116402;27;20427;-83
2024/01/31 05:27:50;;;;;;;0.50;0.50;;;;;;;;;;5116129;27;20092;-82
2024/01/31 05:30:16;;;;;;;0.40;0.40;;;;;;;;;;5099339;27;20035;-83
2024/01/31 05:32:42;;;;;;;0.40;0.40;;;;;;;;;;5098963;27;20502;-83
2024/01/31 05:35:08;;;;;;;0.45;0.45;;;;;;;;;;5098941;27;20035;-83
2024/01/31 05:37:34;;;;;;;0.50;0.50;;;;;;;;;;5099006;27;20050;-83
2024/01/31 05:40:00;;;;;;;0.47;0.47;;;;;;;;;;5115691;27;20039;-83
2024/01/31 05:42:26;;;;;;;0.40;0.40;;;;;;;;;;5116045;27;20043;-83
2024/01/31 05:44:53;;;;;;;0.40;0.40;;;;;;;;;;5116097;27;20049;-83
2024/01/31 05:47:20;;;;;;;0.50;0.50;;;;;;;;;;5115666;27;20079;-83
2024/01/31 05:49:46;;;;;;;0.40;0.40;;;;;;;;;;5098612;27;20096;-82
2024/01/31 05:52:12;;;;;;;0.50;0.50;;;;;;;;;;5115792;27;20548;-83
2024/01/31 05:54:41;;;;;;;0.50;0.50;;;;;;;;;;5098598;27;20031;-83
2024/01/31 05:57:07;;;;;;;0.40;0.40;;;;;;;;;;5098922;27;20039;-83
2024/01/31 05:59:33;;;;;;;0.50;0.50;;;;;;;;;;5098872;27;20065;-83
2024/01/31 06:02:00;;;;;;;0.50;0.50;;;;;;;;;;5098299;28;20046;-84
2024/01/31 06:04:26;;;;;;;0.40;0.40;;;;;;;;;;5093004;27;20075;-83
2024/01/31 06:06:51;;;;;;;0.50;0.50;;;;;;;;;;5098771;28;20093;-83
2024/01/31 06:09:17;;;;;;;0.50;0.50;;;;;;;;;;5098669;28;20035;-83
2024/01/31 06:11:43;;;;;;;0.40;0.40;;;;;;;;;;5115907;28;20070;-83
2024/01/31 06:14:09;;;;;;;0.50;0.50;;;;;;;;;;5115458;28;20039;-82
2024/01/31 06:16:35;;;;;;;0.40;0.40;;;;;;;;;;5115408;28;20062;-83
2024/01/31 06:19:01;;;;;;;0.50;0.50;;;;;;;;;;5098624;28;20503;-83
2024/01/31 06:21:27;;;;;;;0.40;0.40;;;;;;;;;;5115324;28;20073;-83
2024/01/31 06:23:55;;;;;;;0.50;0.50;;;;;;;;;;5098202;28;20092;-83
2024/01/31 06:26:21;;;;;;;0.50;0.50;;;;;;;;;;5115487;28;20050;-83
2024/01/31 06:28:48;;;;;;;0.50;0.50;;;;;;;;;;5115568;28;20039;-82
2024/01/31 06:31:24;;;;;;;0.50;0.50;;;;;;;;;;5098182;28;20042;-83
2024/01/31 06:33:50;;;;;;;0.50;0.50;;;;;;;;;;5098501;28;20507;-83
2024/01/31 06:36:18;;;;;;;0.45;0.45;;;;;;;;;;5098253;28;20046;-83
2024/01/31 06:38:44;;;;;;;0.40;0.40;;;;;;;;;;5098161;28;20043;-83
2024/01/31 06:41:13;;;;;;;0.43;0.43;;;;;;;;;;5098530;28;20046;-83
2024/01/31 06:43:39;;;;;;;0.50;0.50;;;;;;;;;;5115291;28;20099;-83
2024/01/31 06:46:05;;;;;;;0.50;0.50;;;;;;;;;;5098119;28;20067;-83
2024/01/31 06:48:31;;;;;;;0.45;0.45;;;;;;;;;;5097977;28;20514;-83
2024/01/31 06:50:57;;;;;;;0.50;0.50;;;;;;;;;;5099765;27;20041;-83
2024/01/31 06:53:23;;;;;;;0.50;0.50;;;;;;;;;;5119184;27;20500;-84
2024/01/31 06:55:49;;;;;;;0.40;0.40;;;;;;;;;;5102196;27;20035;-83
2024/01/31 06:58:15;;;;;;;0.50;0.50;;;;;;;;;;5102079;27;20034;-83
2024/01/31 07:00:41;;;;;;;0.43;0.43;;;;;;;;;;5119107;27;20031;-83
2024/01/31 07:03:08;;;;;;;0.50;0.50;;;;;;;;;;5101598;27;20035;-83
2024/01/31 07:05:34;;;;;;;0.40;0.40;;;;;;;;;;5102141;27;20125;-83
2024/01/31 07:08:00;;;;;;;0.40;0.40;;;;;;;;;;5101771;27;20039;-83
2024/01/31 07:10:26;;;;;;;0.40;0.40;;;;;;;;;;5118930;27;20077;-83
2024/01/31 07:12:53;;;;;;;0.50;0.50;;;;;;;;;;5101862;27;20426;-83
2024/01/31 07:15:20;;;;;;;0.40;0.40;;;;;;;;;;5118760;27;20393;-83
2024/01/31 07:17:47;;;;;;;0.47;0.47;;;;;;;;;;5101522;27;20101;-83
2024/01/31 07:20:13;;;;;;;0.47;0.47;;;;;;;;;;5101688;27;20033;-83
2024/01/31 07:22:39;;;;;;;0.50;0.50;;;;;;;;;;5118443;27;20046;-83
2024/01/31 07:25:10;;;;;;;0.50;0.50;;;;;;;;;;5101359;27;20035;-83
2024/01/31 07:27:38;;;;;;;0.47;0.47;;;;;;;;;;5101426;27;20523;-83
2024/01/31 07:30:04;;;;;;;0.50;0.50;;;;;;;;;;5101577;27;20492;-83
2024/01/31 07:32:30;;;;;;;0.40;0.40;;;;;;;;;;5101155;27;20441;-84
2024/01/31 07:34:56;;;;;;;0.43;0.43;;;;;;;;;;5101153;27;20043;-82
2024/01/31 07:37:37;;;;;;;0.50;0.50;;;;;;;;;;5116005;27;20448;-83
2024/01/31 07:40:09;;;;;;;0.50;0.50;;;;;;;;;;5099728;27;20066;-83
2024/01/31 07:42:35;;;;;;;0.40;0.40;;;;;;;;;;5116433;27;20080;-83
2024/01/31 07:45:04;;;;;;;0.30;0.30;;;;;;;;;;5100076;27;20409;-83
2024/01/31 07:47:30;;;;;;;0.40;0.40;;;;;;;;;;5100587;27;20039;-83
2024/01/31 07:49:56;;;;;;;0.40;0.40;;;;;;;;;;5100270;27;20137;-84
2024/01/31 07:52:22;;;;;;;0.40;0.40;;;;;;;;;;5117078;27;20458;-83
2024/01/31 07:54:48;;;;;;;0.40;0.40;;;;;;;;;;5100151;27;20066;-83
2024/01/31 07:57:15;;;;;;;0.40;0.40;;;;;;;;;;5122874;27;20399;-89
2024/01/31 07:59:41;;;;;;;0.43;0.43;;;;;;;;;;5124163;27;20055;-86
2024/01/31 08:02:07;;;;;;;0.40;0.40;;;;;;;;;;5117484;27;20613;-86
2024/01/31 08:04:33;;;;;;;0.50;0.50;;;;;;;;;;5108187;27;20047;-86
2024/01/31 08:06:59;;;;;;;0.50;0.50;;;;;;;;;;5100546;27;20042;-86
2024/01/31 08:09:25;;;;;;;0.40;0.40;;;;;;;;;;5100215;27;20133;-86
2024/01/31 08:11:51;;;;;;;0.50;0.50;;;;;;;;;;5100100;27;20055;-88
2024/01/31 08:14:18;;;;;;;0.50;0.50;;;;;;;;;;5099992;27;20038;-88
2024/01/31 08:16:44;;;;;;;0.40;0.40;;;;;;;;;;5100034;27;20031;-86
2024/01/31 08:19:10;;;;;;;0.50;0.50;;;;;;;;;;5114728;27;20039;-87
2024/01/31 08:21:40;;;;;;;0.40;0.40;;;;;;;;;;5117087;27;20053;-87
2024/01/31 08:24:06;;;;;;;0.50;0.50;;;;;;;;;;5099550;27;20039;-85
2024/01/31 08:26:32;;;;;;;0.40;0.40;;;;;;;;;;5099574;27;20050;-86
2024/01/31 08:28:58;;;;;;;0.50;0.50;;;;;;;;;;5099545;27;20536;-86
2024/01/31 08:31:24;;;;;;;0.40;0.40;;;;;;;;;;5119330;27;20103;-86
2024/01/31 08:33:50;;;;;;;0.40;0.40;;;;;;;;;;5106814;27;20087;-83
2024/01/31 08:36:16;;;;;;;0.43;0.43;;;;;;;;;;5115112;27;20046;-83
2024/01/31 08:38:43;;;;;;;0.50;0.50;;;;;;;;;;5116836;27;20130;-83
2024/01/31 08:41:10;;;;;;;0.50;0.50;;;;;;;;;;5099801;27;20039;-84
2024/01/31 08:43:36;;;;;;;0.40;0.40;;;;;;;;;;5103344;27;20511;-83
2024/01/31 08:46:14;;;;;;;0.40;0.40;;;;;;;;;;5098287;27;20130;-84
2024/01/31 08:48:40;;;;;;;0.50;0.50;;;;;;;;;;5106554;27;20049;-83
2024/01/31 08:51:07;;;;;;;0.40;0.40;;;;;;;;;;5123607;27;20043;-84
2024/01/31 08:53:33;;;;;;;0.47;0.47;;;;;;;;;;5115941;27;20091;-86
2024/01/31 08:55:59;;;;;;;0.50;0.50;;;;;;;;;;5099438;27;20035;-86
2024/01/31 08:58:25;;;;;;;0.40;0.40;;;;;;;;;;5110628;27;20041;-86
2024/01/31 09:00:51;;;;;;;0.40;0.40;;;;;;;;;;5116475;27;20621;-85
2024/01/31 09:03:18;;;;;;;0.50;0.50;;;;;;;;;;5120216;27;20035;-85
2024/01/31 09:05:44;;;;;;;0.40;0.40;;;;;;;;;;5093103;27;20045;-85
2024/01/31 09:08:09;;;;;;;0.50;0.50;;;;;;;;;;5120277;27;20043;-84
2024/01/31 09:10:35;;;;;;;0.50;0.50;;;;;;;;;;5110749;27;20031;-84
2024/01/31 09:13:01;;;;;;;0.30;0.30;;;;;;;;;;5120744;27;20084;-84
2024/01/31 09:15:27;;;;;;;0.50;0.50;;;;;;;;;;5114405;27;20042;-82
2024/01/31 09:17:54;;;;;;;0.40;0.40;;;;;;;;;;5103057;27;20035;-85
2024/01/31 09:20:20;;;;;;;0.40;0.40;;;;;;;;;;5107037;27;20038;-84
2024/01/31 09:22:46;;;;;;;0.43;0.43;;;;;;;;;;5103185;27;20054;-84
2024/01/31 09:25:14;;;;;;;0.40;0.40;;;;;;;;;;5103346;27;20038;-86
2024/01/31 09:27:43;;;;;;;0.40;0.40;;;;;;;;;;5098468;27;20108;-83
2024/01/31 09:30:10;;;;;;;0.50;0.50;;;;;;;;;;5115965;27;20038;-83
2024/01/31 09:32:36;;;;;;;0.50;0.50;;;;;;;;;;5099689;27;20049;-83
2024/01/31 09:35:01;;;;;;;0.45;0.45;;;;;;;;;;5115402;27;20479;-84
2024/01/31 09:37:27;;;;;;;0.40;0.40;;;;;;;;;;5097540;27;20043;-84
2024/01/31 09:39:56;;;;;;;0.45;0.45;;;;;;;;;;5132035;27;20088;-87
2024/01/31 09:42:22;;;;;;;0.40;0.40;;;;;;;;;;5097903;28;20121;-88
2024/01/31 09:44:49;;;;;;;0.40;0.40;;;;;;;;;;5098655;27;20555;-87
2024/01/31 09:47:15;;;;;;;0.40;0.40;;;;;;;;;;5099469;27;20053;-85
2024/01/31 09:49:43;;;;;;;0.40;0.40;;;;;;;;;;5120308;27;20031;-87
2024/01/31 09:52:12;;;;;;;0.40;0.40;;;;;;;;;;5103530;27;20035;-86
2024/01/31 09:54:39;;;;;;;0.45;0.45;;;;;;;;;;5098916;27;20035;-85
2024/01/31 09:57:05;;;;;;;0.43;0.43;;;;;;;;;;5101626;28;20524;-85
2024/01/31 09:59:31;;;;;;;0.40;0.40;;;;;;;;;;5106374;27;20035;-85
2024/01/31 10:01:57;;;;;;;0.50;0.50;;;;;;;;;;5116603;27;20108;-84
2024/01/31 10:04:23;;;;;;;0.40;0.40;;;;;;;;;;5113611;28;20035;-85
2024/01/31 10:06:51;;;;;;;0.47;0.47;;;;;;;;;;5121560;27;20506;-85
2024/01/31 10:09:17;;;;;;;0.40;0.40;;;;;;;;;;5097859;28;20072;-84
2024/01/31 10:11:47;;;;;;;0.50;0.50;;;;;;;;;;5098736;28;20426;-84
2024/01/31 10:14:13;;;;;;;0.40;0.40;;;;;;;;;;5097026;28;20039;-86
2024/01/31 10:16:40;;;;;;;0.50;0.50;;;;;;;;;;5098320;28;20067;-85
2024/01/31 10:19:06;;;;;;;0.45;0.45;;;;;;;;;;5097944;28;20070;-84
2024/01/31 10:21:36;;;;;;;0.38;0.38;;;;;;;;;;5097555;28;20452;-85
2024/01/31 10:24:02;;;;;;;0.50;0.50;;;;;;;;;;5114053;28;20038;-84
2024/01/31 10:26:29;;;;;;;0.50;0.50;;;;;;;;;;5109796;27;20043;-84
2024/01/31 10:28:56;;;;;;;0.40;0.40;;;;;;;;;;5101844;27;20049;-84
2024/01/31 10:31:30;;;;;;;0.40;0.40;;;;;;;;;;5119129;27;20071;-84
2024/01/31 10:33:58;;;;;;;0.40;0.40;;;;;;;;;;5099824;27;20126;-84
2024/01/31 10:36:24;;;;;;;0.45;0.45;;;;;;;;;;5100912;27;20035;-82
2024/01/31 10:38:50;;;;;;;0.40;0.40;;;;;;;;;;5126930;27;20633;-84
2024/01/31 10:41:19;;;;;;;0.50;0.50;;;;;;;;;;5113544;27;20118;-84
2024/01/31 10:43:48;;;;;;;0.50;0.50;;;;;;;;;;5101373;27;20043;-84
2024/01/31 10:46:14;;;;;;;0.50;0.50;;;;;;;;;;5101615;27;20070;-84
2024/01/31 10:48:40;;;;;;;0.40;0.40;;;;;;;;;;5118566;27;20074;-85
2024/01/31 10:51:08;;;;;;;0.50;0.50;;;;;;;;;;5101093;27;20138;-86
2024/01/31 10:53:34;;;;;;;0.40;0.40;;;;;;;;;;5118548;27;20042;-84
2024/01/31 10:56:01;;;;;;;0.40;0.40;;;;;;;;;;5118643;27;20039;-84
2024/01/31 10:58:29;;;;;;;0.38;0.38;;;;;;;;;;5101574;27;20519;-85
2024/01/31 11:00:55;;;;;;;0.40;0.40;;;;;;;;;;5101745;27;20050;-84
2024/01/31 11:03:22;;;;;;;0.40;0.40;;;;;;;;;;5097874;28;20122;-84
2024/01/31 11:05:53;;;;;;;0.50;0.50;;;;;;;;;;5100789;27;20034;-84
2024/01/31 11:08:20;;;;;;;0.40;0.40;;;;;;;;;;5101441;27;20047;-84
2024/01/31 11:10:46;;;;;;;0.40;0.40;;;;;;;;;;5118150;27;20137;-85
2024/01/31 11:13:15;;;;;;;0.50;0.50;;;;;;;;;;5100933;27;20122;-84
2024/01/31 11:15:45;;;;;;;0.50;0.50;;;;;;;;;;5101051;27;20068;-84
2024/01/31 11:18:13;;;;;;;0.45;0.45;;;;;;;;;;5100717;27;20399;-84
2024/01/31 11:20:50;;;;;;;0.40;0.40;;;;;;;;;;5100857;27;20043;-84
2024/01/31 11:23:16;;;;;;;0.40;0.40;;;;;;;;;;5100221;28;20031;-84
2024/01/31 11:25:46;;;;;;;0.40;0.40;;;;;;;;;;5100265;28;20066;-83
2024/01/31 11:28:12;;;;;;;0.40;0.40;;;;;;;;;;5099930;28;20039;-83
2024/01/31 11:30:39;;;;;;;0.40;0.40;;;;;;;;;;5136085;28;20484;-83
2024/01/31 11:33:06;;;;;;;0.40;0.40;;;;;;;;;;5117324;28;20035;-83
2024/01/31 11:35:32;;;;;;;0.90;0.90;;;;;;;;;;5117636;28;20031;-83
2024/01/31 11:37:59;;;;;;;0.40;0.40;;;;;;;;;;5099823;28;20047;-83
2024/01/31 11:40:25;;;;;;;0.43;0.43;;;;;;;;;;5117420;28;20494;-83
2024/01/31 11:42:52;;;;;;;0.40;0.40;;;;;;;;;;5117147;28;20039;-83
2024/01/31 11:45:18;;;;;;;0.40;0.40;;;;;;;;;;5100300;28;20514;-83
2024/01/31 11:47:44;;;;;;;0.40;0.40;;;;;;;;;;5099785;28;20387;-83
2024/01/31 11:50:10;;;;;;;0.40;0.40;;;;;;;;;;5100322;28;20488;-83
2024/01/31 11:52:37;;;;;;;0.40;0.40;;;;;;;;;;5099802;28;20048;-83
2024/01/31 11:55:06;;;;;;;0.43;0.43;;;;;;;;;;5117258;28;20027;-83
2024/01/31 11:57:32;;;;;;;0.40;0.40;;;;;;;;;;5117274;28;20645;-83
2024/01/31 11:59:59;;;;;;;0.50;0.50;;;;;;;;;;5100142;28;20039;-83
2024/01/31 12:02:25;;;;;;;0.40;0.40;;;;;;;;;;5100060;28;20038;-83
2024/01/31 12:04:52;;;;;;;0.50;0.50;;;;;;;;;;5116967;28;20042;-83
2024/01/31 12:07:18;;;;;;;0.50;0.50;;;;;;;;;;5099958;28;20039;-83
2024/01/31 12:09:44;;;;;;;0.40;0.40;;;;;;;;;;5099900;28;20038;-83
2024/01/31 12:12:10;;;;;;;0.50;0.50;;;;;;;;;;5099303;28;20031;-83
2024/01/31 12:14:36;;;;;;;0.50;0.50;;;;;;;;;;5116626;28;20055;-83
2024/01/31 12:17:02;;;;;;;0.40;0.40;;;;;;;;;;5135276;28;20039;-83
2024/01/31 12:19:29;;;;;;;0.40;0.40;;;;;;;;;;5099457;28;20066;-83
2024/01/31 12:21:56;;;;;;;0.40;0.40;;;;;;;;;;5097898;28;20056;-84
2024/01/31 12:24:23;;;;;;;0.40;0.40;;;;;;;;;;5063126;27;1029965;-83
2024/01/31 12:26:49;;;;;;;0.40;0.40;;;;;;;;;;5116883;27;20472;-84
2024/01/31 12:29:15;;;;;;;0.40;0.40;;;;;;;;;;5099622;27;20085;-84
2024/01/31 12:31:41;;;;;;;0.30;0.30;;;;;;;;;;5116939;27;20075;-85
2024/01/31 12:34:07;;;;;;;0.30;0.30;;;;;;;;;;5116429;27;20452;-85
2024/01/31 12:36:33;;;;;;;0.40;0.40;;;;;;;;;;5116571;27;20503;-87
2024/01/31 12:38:59;;;;;;;0.30;0.30;;;;;;;;;;5099922;27;20035;-88
2024/01/31 12:41:25;;;;;;;0.40;0.40;;;;;;;;;;5117031;27;20043;-85
2024/01/31 12:43:50;;;;;;;0.40;0.40;;;;;;;;;;5116525;27;20039;-83
2024/01/31 12:46:17;;;;;;;0.40;0.40;;;;;;;;;;5099411;27;20043;-83
2024/01/31 12:48:43;;;;;;;0.40;0.40;;;;;;;;;;5098708;27;20050;-84
2024/01/31 12:51:09;;;;;;;0.40;0.40;;;;;;;;;;5134904;27;20031;-85
2024/01/31 12:53:34;;;;;;;0.40;0.40;;;;;;;;;;5098888;27;20034;-85
2024/01/31 12:56:00;;;;;;;0.40;0.40;;;;;;;;;;5099351;27;20098;-86
2024/01/31 12:58:28;;;;;;;0.40;0.40;;;;;;;;;;5099147;27;20507;-84
2024/01/31 13:00:55;;;;;;;0.40;0.40;;;;;;;;;;5099185;27;20051;-84
2024/01/31 13:03:21;;;;;;;0.40;0.40;;;;;;;;;;5098472;27;20453;-82
2024/01/31 13:05:47;;;;;;;0.40;0.40;;;;;;;;;;5099248;27;20047;-82
2024/01/31 13:08:13;;;;;;;0.50;0.50;;;;;;;;;;5098841;27;20377;-84
2024/01/31 13:10:48;;;;;;;0.40;0.40;;;;;;;;;;5116238;27;20399;-88
2024/01/31 13:13:14;;;;;;;0.32;0.32;;;;;;;;;;5116640;27;20473;-83
2024/01/31 13:15:39;;;;;;;0.40;0.40;;;;;;;;;;5116129;27;20172;-84
2024/01/31 13:18:06;;;;;;;0.40;0.40;;;;;;;;;;5116073;27;20042;-84
2024/01/31 13:20:32;;;;;;;0.40;0.40;;;;;;;;;;5099306;27;20039;-85
2024/01/31 13:22:58;;;;;;;0.40;0.40;;;;;;;;;;5115460;27;20046;-87
2024/01/31 13:25:24;;;;;;;0.40;0.40;;;;;;;;;;5134043;27;20411;-87
2024/01/31 13:27:50;;;;;;;0.50;0.50;;;;;;;;;;5115691;27;20049;-86
2024/01/31 13:30:16;;;;;;;0.40;0.40;;;;;;;;;;5099055;27;20039;-83
2024/01/31 13:32:42;;;;;;;0.40;0.40;;;;;;;;;;5115280;27;20031;-83
2024/01/31 13:35:09;;;;;;;0.40;0.40;;;;;;;;;;5115348;27;20035;-85
2024/01/31 13:37:35;;;;;;;0.30;0.30;;;;;;;;;;5098662;27;20053;-86
2024/01/31 13:40:00;;;;;;;0.40;0.40;;;;;;;;;;5115470;27;20466;-86
2024/01/31 13:42:26;;;;;;;0.40;0.40;;;;;;;;;;5098051;27;20051;-83
2024/01/31 13:44:52;;;;;;;0.40;0.40;;;;;;;;;;5115414;27;20113;-87
2024/01/31 13:47:18;;;;;;;3.03;2.47;;;;;;;;;;5098187;27;20035;-84
2024/01/31 13:49:44;;;;;;;0.40;0.40;;;;;;;;;;5098275;27;20035;-85
2024/01/31 13:52:10;;;;;;;0.40;0.40;;;;;;;;;;5097771;27;20095;-85
2024/01/31 13:54:36;;;;;;;0.52;0.52;;;;;;;;;;5115196;28;20491;-85
2024/01/31 13:57:02;;;;;;;0.40;0.40;;;;;;;;;;5098186;27;20503;-84
2024/01/31 13:59:28;;;;;;;0.40;0.40;;;;;;;;;;5115026;27;20043;-84
2024/01/31 14:01:54;;;;;;;0.40;0.40;;;;;;;;;;5098127;27;20039;-84
2024/01/31 14:04:25;;;;;;;0.40;0.40;;;;;;;;;;5095224;28;20066;-84
2024/01/31 14:06:51;;;;;;;0.50;0.50;;;;;;;;;;5115362;27;20472;-84
2024/01/31 14:09:17;;;;;;;0.40;0.40;;;;;;;;;;5132853;27;20041;-84
2024/01/31 14:11:43;;;;;;;0.40;0.40;;;;;;;;;;5111638;28;20070;-84
2024/01/31 14:14:09;;;;;;;0.40;0.40;;;;;;;;;;5114346;28;20391;-84
2024/01/31 14:16:47;;;;;;;0.40;0.40;;;;;;;;;;5115437;28;20110;-85
2024/01/31 14:19:13;;;;;;;0.40;0.40;;;;;;;;;;5133393;28;20043;-86
2024/01/31 14:21:39;;;;;;;0.50;0.50;;;;;;;;;;5115022;28;20407;-85
2024/01/31 14:24:05;;;;;;;0.50;0.50;;;;;;;;;;5097278;28;20035;-84
2024/01/31 14:26:31;;;;;;;0.40;0.40;;;;;;;;;;5097809;28;20039;-86
2024/01/31 14:28:57;;;;;;;0.40;0.40;;;;;;;;;;5114636;28;20400;-86
2024/01/31 14:31:23;;;;;;;0.40;0.40;;;;;;;;;;5089769;28;20037;-86
2024/01/31 14:33:49;;;;;;;0.40;0.40;;;;;;;;;;5097395;28;20794;-85
2024/01/31 14:36:15;;;;;;;0.50;0.50;;;;;;;;;;5097643;28;20058;-85
2024/01/31 14:38:42;;;;;;;0.50;0.50;;;;;;;;;;5098027;28;20057;-83